Time;durP1;ratioP1;P1;durP2;ratioP2;P2;SDS_P1;SDS_P2;PMS_P1;PMS_P2;Temp;Humidity;BMP_temperature;BMP_pressure;BME280_temperature;BME280_humidity;BME280_pressure;Samples;Min_cycle;Max_cycle;Signal;HPM_P1;HPM_P2
2023/07/24 00:00:49;;;;;;;16.55;9.07;;;;;;;;;;4844555;29;20485;-83
2023/07/24 00:03:34;;;;;;;14.48;9.07;;;;;;;;;;4844429;29;20046;-83
2023/07/24 00:06:19;;;;;;;13.32;9.45;;;;;;;;;;4845057;29;20049;-83
2023/07/24 00:09:05;;;;;;;13.98;9.77;;;;;;;;;;4844174;29;20042;-83
2023/07/24 00:11:54;;;;;;;14.25;9.77;;;;;;;;;;4844284;29;20079;-83
2023/07/24 00:14:39;;;;;;;15.77;10.30;;;;;;;;;;4844486;29;20058;-83
2023/07/24 00:17:28;;;;;;;14.02;10.48;;;;;;;;;;4844814;29;20046;-83
2023/07/24 00:20:17;;;;;;;17.50;11.35;;;;;;;;;;4850167;29;20053;-81
2023/07/24 00:23:05;;;;;;;13.30;9.98;;;;;;;;;;4844067;29;20492;-84
2023/07/24 00:25:51;;;;;;;12.98;9.95;;;;;;;;;;4843917;29;20053;-84
2023/07/24 00:28:36;;;;;;;15.57;10.90;;;;;;;;;;4849901;29;20045;-84
2023/07/24 00:31:28;;;;;;;17.30;10.85;;;;;;;;;;4843872;29;20054;-84
2023/07/24 00:34:13;;;;;;;14.40;9.70;;;;;;;;;;4843561;29;20046;-84
2023/07/24 00:36:59;;;;;;;18.70;11.25;;;;;;;;;;4849975;29;20057;-84
2023/07/24 00:39:44;;;;;;;13.95;9.80;;;;;;;;;;4836374;29;20045;-85
2023/07/24 00:42:30;;;;;;;13.45;10.45;;;;;;;;;;4848640;29;20049;-85
2023/07/24 00:45:22;;;;;;;18.08;10.60;;;;;;;;;;4843729;29;20049;-85
2023/07/24 00:48:14;;;;;;;13.82;10.32;;;;;;;;;;4834247;29;20404;-84
2023/07/24 00:51:00;;;;;;;15.02;11.50;;;;;;;;;;4843783;29;20050;-84
2023/07/24 00:53:47;;;;;;;15.35;10.30;;;;;;;;;;4850016;29;20488;-84
2023/07/24 00:56:34;;;;;;;17.40;11.20;;;;;;;;;;4829767;29;20042;-83
2023/07/24 00:59:22;;;;;;;17.05;12.30;;;;;;;;;;4836914;29;20497;-84
2023/07/24 01:02:07;;;;;;;15.23;11.98;;;;;;;;;;4830427;29;20066;-84
2023/07/24 01:04:56;;;;;;;15.05;12.07;;;;;;;;;;4825626;29;20046;-85
2023/07/24 01:07:44;;;;;;;17.35;12.32;;;;;;;;;;4831734;29;20477;-85
2023/07/24 01:10:30;;;;;;;16.45;12.48;;;;;;;;;;4842697;29;20050;-82
2023/07/24 01:13:22;;;;;;;20.67;13.00;;;;;;;;;;4825504;29;20054;-82
2023/07/24 01:16:13;;;;;;;19.15;14.43;;;;;;;;;;4831055;29;20042;-83
2023/07/24 01:19:00;;;;;;;17.17;12.63;;;;;;;;;;4830931;29;20046;-83
2023/07/24 01:22:02;;;;;;;19.83;14.13;;;;;;;;;;4842910;29;20054;-83
2023/07/24 01:25:02;;;;;;;17.95;13.13;;;;;;;;;;4842698;29;20046;-82
2023/07/24 01:27:51;;;;;;;16.77;13.35;;;;;;;;;;4830236;29;20050;-85
2023/07/24 01:30:37;;;;;;;19.48;13.98;;;;;;;;;;4825221;29;20050;-87
2023/07/24 01:33:23;;;;;;;19.05;13.93;;;;;;;;;;4837714;29;20050;-89
2023/07/24 01:36:10;;;;;;;18.70;13.98;;;;;;;;;;4818091;29;20042;-86
2023/07/24 01:38:56;;;;;;;19.70;13.77;;;;;;;;;;4829936;29;20393;-85
2023/07/24 01:41:41;;;;;;;16.67;13.35;;;;;;;;;;4824923;29;20058;-85
2023/07/24 01:44:27;;;;;;;18.23;13.48;;;;;;;;;;4842711;29;20497;-84
2023/07/24 01:47:12;;;;;;;19.73;13.63;;;;;;;;;;4829853;29;20076;-84
2023/07/24 01:49:58;;;;;;;20.20;13.23;;;;;;;;;;4848455;29;20054;-82
2023/07/24 01:52:45;;;;;;;19.67;13.98;;;;;;;;;;4832271;29;20076;-84
2023/07/24 01:55:30;;;;;;;21.50;13.90;;;;;;;;;;4829645;29;20050;-85
2023/07/24 01:58:15;;;;;;;20.65;14.73;;;;;;;;;;4833536;29;20054;-84
2023/07/24 02:01:01;;;;;;;20.23;12.77;;;;;;;;;;4833687;29;20047;-85
2023/07/24 02:03:47;;;;;;;19.00;13.73;;;;;;;;;;4828917;29;20489;-85
2023/07/24 02:06:32;;;;;;;18.48;12.80;;;;;;;;;;4833484;29;20489;-84
2023/07/24 02:09:18;;;;;;;19.23;13.68;;;;;;;;;;4827980;29;20050;-85
2023/07/24 02:12:04;;;;;;;18.85;12.73;;;;;;;;;;4828348;29;20058;-85
2023/07/24 02:14:51;;;;;;;16.52;12.80;;;;;;;;;;4833408;29;20054;-85
2023/07/24 02:17:43;;;;;;;21.88;13.65;;;;;;;;;;4833117;29;20050;-85
2023/07/24 02:20:29;;;;;;;19.17;12.60;;;;;;;;;;4833497;29;20058;-85
2023/07/24 02:23:15;;;;;;;15.18;12.55;;;;;;;;;;4827785;29;20046;-84
2023/07/24 02:26:01;;;;;;;18.10;12.20;;;;;;;;;;4827845;29;20481;-84
2023/07/24 02:28:46;;;;;;;15.65;12.68;;;;;;;;;;4832890;29;20050;-84
2023/07/24 02:31:34;;;;;;;23.02;13.48;;;;;;;;;;4827673;29;20473;-85
2023/07/24 02:34:24;;;;;;;21.70;13.07;;;;;;;;;;4827926;29;20050;-85
2023/07/24 02:37:09;;;;;;;17.52;13.02;;;;;;;;;;4845699;29;20058;-84
2023/07/24 02:39:57;;;;;;;19.55;12.80;;;;;;;;;;4832667;29;20485;-85
2023/07/24 02:42:42;;;;;;;15.15;12.20;;;;;;;;;;4827756;29;20046;-87
2023/07/24 02:45:27;;;;;;;19.77;12.55;;;;;;;;;;4827411;29;20497;-84
2023/07/24 02:48:13;;;;;;;17.08;12.50;;;;;;;;;;4827349;29;20054;-84
2023/07/24 02:50:58;;;;;;;19.35;13.00;;;;;;;;;;4827306;29;20046;-84
2023/07/24 02:53:44;;;;;;;18.40;12.90;;;;;;;;;;4832702;29;20046;-84
2023/07/24 02:56:30;;;;;;;19.15;12.68;;;;;;;;;;4832511;29;20046;-86
2023/07/24 02:59:15;;;;;;;17.23;12.30;;;;;;;;;;4829554;29;20062;-87
2023/07/24 03:02:01;;;;;;;21.63;12.75;;;;;;;;;;4826295;29;20050;-84
2023/07/24 03:04:47;;;;;;;19.40;12.68;;;;;;;;;;4832448;29;20409;-86
2023/07/24 03:07:32;;;;;;;15.88;12.27;;;;;;;;;;4832519;29;20046;-85
2023/07/24 03:10:18;;;;;;;16.70;11.48;;;;;;;;;;4844844;29;20054;-85
2023/07/24 03:13:03;;;;;;;16.73;11.63;;;;;;;;;;4827701;29;20054;-86
2023/07/24 03:15:56;;;;;;;16.40;11.43;;;;;;;;;;4832400;29;20405;-86
2023/07/24 03:18:42;;;;;;;14.52;11.90;;;;;;;;;;4826202;29;20043;-86
2023/07/24 03:21:27;;;;;;;18.42;12.57;;;;;;;;;;4845195;29;20054;-86
2023/07/24 03:24:13;;;;;;;19.75;13.13;;;;;;;;;;4826755;29;20042;-85
2023/07/24 03:27:00;;;;;;;16.85;12.40;;;;;;;;;;4826729;29;20413;-85
2023/07/24 03:29:45;;;;;;;17.38;12.57;;;;;;;;;;4844761;29;20058;-84
2023/07/24 03:32:30;;;;;;;16.58;12.15;;;;;;;;;;4832119;29;20054;-86
2023/07/24 03:35:16;;;;;;;17.73;13.20;;;;;;;;;;4827030;29;20058;-84
2023/07/24 03:38:02;;;;;;;16.08;12.98;;;;;;;;;;4826610;29;20075;-84
2023/07/24 03:40:48;;;;;;;16.45;12.55;;;;;;;;;;4825570;29;20047;-86
2023/07/24 03:43:33;;;;;;;16.88;12.52;;;;;;;;;;4831837;29;20101;-84
2023/07/24 03:46:18;;;;;;;18.98;12.63;;;;;;;;;;4826963;29;20485;-84
2023/07/24 03:49:04;;;;;;;18.42;13.15;;;;;;;;;;4827271;29;20054;-84
2023/07/24 03:51:49;;;;;;;16.60;12.73;;;;;;;;;;4834378;29;20050;-84
2023/07/24 03:54:35;;;;;;;22.65;14.15;;;;;;;;;;4825723;29;20489;-88
2023/07/24 03:57:21;;;;;;;17.52;13.13;;;;;;;;;;4825504;29;20050;-86
2023/07/24 04:00:07;;;;;;;17.60;13.68;;;;;;;;;;4826390;29;20058;-85
2023/07/24 04:02:58;;;;;;;17.60;12.73;;;;;;;;;;4835946;29;20042;-85
2023/07/24 04:05:44;;;;;;;19.25;13.45;;;;;;;;;;4844812;29;20046;-86
2023/07/24 04:08:29;;;;;;;21.17;13.45;;;;;;;;;;4819132;29;20042;-86
2023/07/24 04:11:15;;;;;;;17.27;13.75;;;;;;;;;;4825858;29;20046;-86
2023/07/24 04:14:00;;;;;;;25.55;14.40;;;;;;;;;;4826357;29;20050;-85
2023/07/24 04:16:46;;;;;;;23.33;14.13;;;;;;;;;;4824723;29;20055;-87
2023/07/24 04:19:31;;;;;;;22.23;13.93;;;;;;;;;;4830636;29;20039;-86
2023/07/24 04:22:16;;;;;;;19.30;13.63;;;;;;;;;;4835872;29;20054;-85
2023/07/24 04:25:01;;;;;;;19.27;14.25;;;;;;;;;;4855812;29;20042;-86
2023/07/24 04:27:47;;;;;;;21.85;16.05;;;;;;;;;;4827093;29;20054;-87
2023/07/24 04:30:33;;;;;;;21.30;15.60;;;;;;;;;;4830647;29;20501;-87
2023/07/24 04:33:18;;;;;;;26.75;16.52;;;;;;;;;;4826473;29;20046;-87
2023/07/24 04:36:05;;;;;;;28.48;16.70;;;;;;;;;;4830876;29;20062;-87
2023/07/24 04:38:51;;;;;;;24.52;16.13;;;;;;;;;;4826125;29;20054;-87
2023/07/24 04:41:36;;;;;;;21.10;15.63;;;;;;;;;;4844337;29;20050;-86
2023/07/24 04:44:22;;;;;;;18.70;14.05;;;;;;;;;;4825971;29;20050;-88
2023/07/24 04:47:07;;;;;;;20.05;14.88;;;;;;;;;;4830902;29;20401;-87
2023/07/24 04:49:55;;;;;;;22.02;14.32;;;;;;;;;;4826658;29;20050;-88
2023/07/24 04:52:40;;;;;;;24.70;15.40;;;;;;;;;;4832727;29;20489;-87
2023/07/24 04:55:26;;;;;;;20.00;15.30;;;;;;;;;;4827393;29;20054;-87
2023/07/24 04:58:12;;;;;;;23.13;14.88;;;;;;;;;;4840168;29;20043;-88
2023/07/24 05:00:57;;;;;;;24.10;15.02;;;;;;;;;;4831285;29;20046;-88
2023/07/24 05:03:43;;;;;;;23.50;14.80;;;;;;;;;;4819150;29;20054;-89
2023/07/24 05:06:28;;;;;;;23.80;14.93;;;;;;;;;;4825928;29;20054;-88
2023/07/24 05:09:14;;;;;;;23.20;14.50;;;;;;;;;;4845535;29;20054;-86
2023/07/24 05:12:00;;;;;;;20.23;15.07;;;;;;;;;;4817797;29;20481;-86
2023/07/24 05:14:45;;;;;;;19.60;14.35;;;;;;;;;;4826221;29;20046;-86
2023/07/24 05:17:31;;;;;;;22.63;14.80;;;;;;;;;;4826072;29;20053;-88
2023/07/24 05:20:16;;;;;;;17.60;12.80;;;;;;;;;;4832277;29;20035;-88
2023/07/24 05:26:06;;;;;;;18.00;13.05;;;;;;;;;;5815847;23;20039;-88
2023/07/24 05:28:53;;;;;;;19.30;12.23;;;;;;;;;;4878437;29;20057;-88
2023/07/24 05:31:37;;;;;;;21.40;13.35;;;;;;;;;;4883586;29;20041;-89
2023/07/24 05:34:22;;;;;;;124.57;101.63;;;;;;;;;;4876462;29;20049;-86
2023/07/24 05:37:08;;;;;;;25.98;17.13;;;;;;;;;;4885853;29;20045;-87
2023/07/24 05:39:53;;;;;;;20.27;12.38;;;;;;;;;;4884637;29;20053;-87
2023/07/24 05:42:41;;;;;;;14.23;10.40;;;;;;;;;;4880204;29;20037;-86
2023/07/24 05:45:27;;;;;;;20.63;11.27;;;;;;;;;;4879963;29;20044;-87
2023/07/24 05:48:12;;;;;;;16.00;10.75;;;;;;;;;;4872071;29;20045;-86
2023/07/24 05:50:58;;;;;;;20.13;10.50;;;;;;;;;;4880164;29;20049;-86
2023/07/24 05:53:43;;;;;;;13.52;9.88;;;;;;;;;;4880795;29;20041;-87
2023/07/24 05:56:29;;;;;;;17.77;10.88;;;;;;;;;;4879088;29;20045;-86
2023/07/24 05:59:14;;;;;;;17.05;10.40;;;;;;;;;;4878808;29;20041;-87
2023/07/24 06:01:59;;;;;;;16.20;10.15;;;;;;;;;;4873780;29;20041;-86
2023/07/24 06:04:55;;;;;;;17.75;10.38;;;;;;;;;;4880097;29;20041;-86
2023/07/24 06:07:40;;;;;;;13.48;9.32;;;;;;;;;;4873234;29;20053;-88
2023/07/24 06:10:26;;;;;;;13.55;9.70;;;;;;;;;;4872010;29;20037;-87
2023/07/24 06:13:11;;;;;;;16.02;10.13;;;;;;;;;;4878726;29;20049;-88
2023/07/24 06:15:57;;;;;;;11.65;9.10;;;;;;;;;;4887909;29;20045;-88
2023/07/24 06:18:43;;;;;;;17.38;9.65;;;;;;;;;;4903490;29;20033;-87
2023/07/24 06:21:29;;;;;;;13.98;9.48;;;;;;;;;;4890538;29;20061;-88
2023/07/24 06:24:14;;;;;;;15.95;10.18;;;;;;;;;;4883863;29;20045;-89
2023/07/24 06:26:59;;;;;;;14.15;10.10;;;;;;;;;;4881631;29;20053;-88
2023/07/24 06:29:45;;;;;;;15.02;9.40;;;;;;;;;;4869356;29;20050;-88
2023/07/24 06:32:30;;;;;;;14.60;9.70;;;;;;;;;;4857060;29;20053;-86
2023/07/24 06:35:16;;;;;;;12.32;9.43;;;;;;;;;;4854584;29;20049;-87
2023/07/24 06:38:02;;;;;;;12.52;9.43;;;;;;;;;;4853440;29;20053;-89
2023/07/24 06:40:47;;;;;;;14.57;9.18;;;;;;;;;;4856131;29;20495;-89
2023/07/24 06:43:37;;;;;;;15.05;9.65;;;;;;;;;;4850805;29;20049;-89
2023/07/24 06:46:25;;;;;;;16.98;9.70;;;;;;;;;;4864678;29;20050;-89
2023/07/24 06:49:29;;;;;;;13.45;9.85;;;;;;;;;;4859314;29;20057;-88
2023/07/24 06:52:14;;;;;;;11.13;9.25;;;;;;;;;;4872465;29;20049;-88
2023/07/24 06:55:00;;;;;;;17.45;9.27;;;;;;;;;;4864917;29;20053;-87
2023/07/24 06:57:46;;;;;;;11.38;9.35;;;;;;;;;;4856850;29;20045;-87
2023/07/24 07:00:31;;;;;;;12.52;9.57;;;;;;;;;;4856692;29;20053;-76
2023/07/24 07:03:17;;;;;;;15.73;9.65;;;;;;;;;;4870542;29;20042;-75
2023/07/24 07:06:03;;;;;;;14.88;10.07;;;;;;;;;;4870230;29;20042;-76
2023/07/24 07:08:48;;;;;;;15.55;9.40;;;;;;;;;;4864380;29;20041;-77
2023/07/24 07:11:34;;;;;;;13.68;9.32;;;;;;;;;;4873636;29;20046;-81
2023/07/24 07:14:19;;;;;;;12.90;9.13;;;;;;;;;;4863908;29;20050;-78
2023/07/24 07:17:05;;;;;;;11.40;9.35;;;;;;;;;;4863991;29;20041;-79
2023/07/24 07:19:50;;;;;;;14.23;9.60;;;;;;;;;;4862840;29;20630;-80
2023/07/24 07:22:36;;;;;;;18.50;10.40;;;;;;;;;;4871026;29;20512;-80
2023/07/24 07:25:21;;;;;;;12.90;9.18;;;;;;;;;;4864038;29;20057;-83
2023/07/24 07:28:07;;;;;;;14.20;9.60;;;;;;;;;;4866832;29;20046;-78
2023/07/24 07:30:54;;;;;;;14.07;9.65;;;;;;;;;;4871569;29;20046;-78
2023/07/24 07:33:42;;;;;;;12.90;9.07;;;;;;;;;;4869903;29;20045;-79
2023/07/24 07:36:28;;;;;;;13.40;9.70;;;;;;;;;;4859873;29;20053;-79
2023/07/24 07:39:13;;;;;;;16.58;9.77;;;;;;;;;;4873350;29;20049;-79
2023/07/24 07:41:59;;;;;;;12.95;9.88;;;;;;;;;;4873575;29;20049;-79
2023/07/24 07:44:46;;;;;;;13.65;9.93;;;;;;;;;;4863412;29;20037;-79
2023/07/24 07:47:31;;;;;;;12.85;9.80;;;;;;;;;;4869841;29;20053;-79
2023/07/24 07:50:17;;;;;;;13.00;9.35;;;;;;;;;;4869166;29;20492;-80
2023/07/24 07:53:02;;;;;;;19.42;10.27;;;;;;;;;;4868994;29;20053;-78
2023/07/24 07:55:56;;;;;;;19.05;10.13;;;;;;;;;;4871490;29;20053;-78
2023/07/24 07:58:42;;;;;;;16.63;10.15;;;;;;;;;;4865608;29;20408;-78
2023/07/24 08:01:27;;;;;;;18.55;10.00;;;;;;;;;;4865582;29;20050;-79
2023/07/24 08:04:12;;;;;;;16.63;10.02;;;;;;;;;;4863053;29;20050;-78
2023/07/24 08:06:58;;;;;;;15.55;9.60;;;;;;;;;;4863825;29;20049;-77
2023/07/24 08:09:45;;;;;;;16.95;9.85;;;;;;;;;;4862884;29;20045;-78
2023/07/24 08:12:30;;;;;;;12.98;9.23;;;;;;;;;;4862886;29;20404;-79
2023/07/24 08:15:16;;;;;;;16.25;9.40;;;;;;;;;;4863648;29;20041;-79
2023/07/24 08:18:04;;;;;;;15.50;9.93;;;;;;;;;;4871903;29;20049;-79
2023/07/24 08:20:49;;;;;;;14.60;10.00;;;;;;;;;;4868837;29;20049;-79
2023/07/24 08:23:35;;;;;;;14.50;10.02;;;;;;;;;;4869403;29;20049;-79
2023/07/24 08:26:20;;;;;;;17.75;10.55;;;;;;;;;;4862318;29;20053;-80
2023/07/24 08:29:06;;;;;;;18.27;10.02;;;;;;;;;;4872106;29;20037;-78
2023/07/24 08:31:51;;;;;;;15.30;10.13;;;;;;;;;;4863216;29;20488;-79
2023/07/24 08:34:37;;;;;;;14.73;10.38;;;;;;;;;;4868034;29;20053;-79
2023/07/24 08:37:23;;;;;;;17.92;9.65;;;;;;;;;;4867629;29;20396;-79
2023/07/24 08:40:09;;;;;;;14.40;9.98;;;;;;;;;;4865902;29;20476;-80
2023/07/24 08:42:56;;;;;;;16.88;10.10;;;;;;;;;;4869536;29;20484;-80
2023/07/24 08:45:42;;;;;;;18.17;10.38;;;;;;;;;;4850469;29;20046;-79
2023/07/24 08:48:38;;;;;;;18.60;10.68;;;;;;;;;;4862889;29;20496;-79
2023/07/24 08:51:24;;;;;;;17.33;10.32;;;;;;;;;;4862140;29;20049;-80
2023/07/24 08:54:12;;;;;;;15.98;9.90;;;;;;;;;;4871762;29;20049;-79
2023/07/24 08:56:57;;;;;;;14.98;10.25;;;;;;;;;;4871383;29;20041;-79
2023/07/24 08:59:42;;;;;;;14.85;10.00;;;;;;;;;;4867163;29;20049;-79
2023/07/24 09:02:28;;;;;;;12.68;9.90;;;;;;;;;;4870242;29;20049;-77
2023/07/24 09:05:15;;;;;;;15.65;10.48;;;;;;;;;;4873169;29;20050;-79
2023/07/24 09:08:00;;;;;;;15.77;9.65;;;;;;;;;;4865270;29;20045;-80
2023/07/24 09:10:50;;;;;;;16.38;10.48;;;;;;;;;;4871679;29;20046;-79
2023/07/24 09:13:38;;;;;;;14.15;9.93;;;;;;;;;;4863717;29;20042;-79
2023/07/24 09:16:25;;;;;;;14.55;10.52;;;;;;;;;;4870111;29;20057;-79
2023/07/24 09:19:19;;;;;;;13.95;9.98;;;;;;;;;;4864949;29;20049;-80
2023/07/24 09:22:13;;;;;;;13.07;9.95;;;;;;;;;;4870483;29;20045;-80
2023/07/24 09:24:59;;;;;;;14.30;9.43;;;;;;;;;;4868045;29;20053;-80
2023/07/24 09:27:44;;;;;;;15.27;9.68;;;;;;;;;;4867863;29;20049;-78
2023/07/24 09:30:31;;;;;;;14.73;9.88;;;;;;;;;;4881924;29;20050;-81
2023/07/24 09:33:16;;;;;;;12.18;9.50;;;;;;;;;;4863134;29;20053;-80
2023/07/24 09:36:04;;;;;;;17.50;10.07;;;;;;;;;;4870386;29;20057;-80
2023/07/24 09:39:00;;;;;;;21.92;10.40;;;;;;;;;;4878967;29;20046;-79
2023/07/24 09:41:49;;;;;;;19.63;9.90;;;;;;;;;;4860954;29;20049;-80
2023/07/24 09:44:35;;;;;;;14.68;9.80;;;;;;;;;;4861653;29;20054;-78
2023/07/24 09:47:20;;;;;;;13.50;9.63;;;;;;;;;;4865360;29;20041;-79
2023/07/24 09:50:06;;;;;;;14.88;9.45;;;;;;;;;;4867146;29;20046;-79
2023/07/24 09:52:52;;;;;;;17.13;10.10;;;;;;;;;;4869018;29;20057;-79
2023/07/24 09:56:01;;;;;;;18.05;10.25;;;;;;;;;;4867944;29;20057;-78
2023/07/24 09:58:49;;;;;;;22.00;10.35;;;;;;;;;;4868826;29;20049;-79
2023/07/24 10:01:36;;;;;;;15.63;9.98;;;;;;;;;;4864331;29;20049;-79
2023/07/24 10:04:24;;;;;;;17.23;10.25;;;;;;;;;;4870328;29;20061;-79
2023/07/24 10:07:10;;;;;;;15.20;9.35;;;;;;;;;;4869108;29;20053;-80
2023/07/24 10:09:57;;;;;;;14.75;9.75;;;;;;;;;;4863417;29;20136;-78
2023/07/24 10:12:43;;;;;;;13.98;9.90;;;;;;;;;;4868759;29;20057;-79
2023/07/24 10:15:30;;;;;;;14.30;10.30;;;;;;;;;;4870264;29;20041;-80
2023/07/24 10:18:19;;;;;;;14.45;10.32;;;;;;;;;;4870893;29;20053;-80
2023/07/24 10:21:08;;;;;;;17.40;10.45;;;;;;;;;;4871637;29;20045;-80
2023/07/24 10:23:53;;;;;;;22.80;10.07;;;;;;;;;;4867953;29;20037;-78
2023/07/24 10:26:39;;;;;;;18.60;10.35;;;;;;;;;;4869984;29;20045;-80
2023/07/24 10:29:28;;;;;;;16.30;9.98;;;;;;;;;;4875552;29;20050;-79
2023/07/24 10:32:18;;;;;;;16.77;10.57;;;;;;;;;;4870659;29;20045;-80
2023/07/24 10:35:08;;;;;;;17.65;10.55;;;;;;;;;;4874368;29;20479;-80
2023/07/24 10:38:00;;;;;;;17.67;10.55;;;;;;;;;;4872970;29;20045;-80
2023/07/24 10:40:48;;;;;;;15.98;9.50;;;;;;;;;;4866084;29;20484;-79
2023/07/24 10:43:41;;;;;;;14.48;9.60;;;;;;;;;;4876435;29;20496;-79
2023/07/24 10:46:36;;;;;;;20.30;10.60;;;;;;;;;;4875982;29;20054;-80
2023/07/24 10:49:22;;;;;;;17.30;9.80;;;;;;;;;;4874499;29;20065;-81
2023/07/24 10:52:08;;;;;;;13.43;9.30;;;;;;;;;;4872239;29;20054;-80
2023/07/24 10:54:53;;;;;;;16.52;9.43;;;;;;;;;;4858006;29;20407;-81
2023/07/24 10:57:38;;;;;;;15.85;10.18;;;;;;;;;;4866188;29;20049;-81
2023/07/24 11:00:25;;;;;;;15.95;10.07;;;;;;;;;;4865558;29;20050;-81
2023/07/24 11:03:14;;;;;;;18.63;9.65;;;;;;;;;;4865010;29;20053;-81
2023/07/24 11:05:59;;;;;;;17.15;10.60;;;;;;;;;;4864470;29;20045;-79
2023/07/24 11:08:57;;;;;;;18.33;10.40;;;;;;;;;;4865303;29;20057;-79
2023/07/24 11:11:42;;;;;;;15.10;9.95;;;;;;;;;;4863563;29;20053;-80
2023/07/24 11:14:28;;;;;;;17.00;10.57;;;;;;;;;;4870149;29;20046;-79
2023/07/24 11:17:13;;;;;;;30.02;12.50;;;;;;;;;;4863612;29;20045;-80
2023/07/24 11:20:26;;;;;;;13.52;9.75;;;;;;;;;;4871239;29;20046;-80
2023/07/24 11:23:11;;;;;;;17.80;10.05;;;;;;;;;;4875552;29;20075;-78
2023/07/24 11:25:58;;;;;;;21.85;9.82;;;;;;;;;;4864084;29;20041;-81
2023/07/24 11:28:44;;;;;;;20.25;10.63;;;;;;;;;;4882983;29;20056;-79
2023/07/24 11:31:38;;;;;;;13.40;9.35;;;;;;;;;;4882546;29;20053;-79
2023/07/24 11:34:24;;;;;;;15.85;9.30;;;;;;;;;;4888974;29;20037;-79
2023/07/24 11:37:10;;;;;;;15.80;10.00;;;;;;;;;;4887704;29;20045;-80
2023/07/24 11:40:08;;;;;;;14.43;9.80;;;;;;;;;;4888998;29;20048;-80
2023/07/24 11:42:53;;;;;;;17.15;9.63;;;;;;;;;;4889709;29;20049;-81
2023/07/24 11:45:42;;;;;;;16.20;10.13;;;;;;;;;;4897678;29;20044;-82
2023/07/24 11:48:28;;;;;;;12.93;9.85;;;;;;;;;;4884066;29;20045;-79
2023/07/24 11:51:16;;;;;;;19.58;9.73;;;;;;;;;;4883562;29;20466;-80
2023/07/24 11:54:11;;;;;;;17.08;9.68;;;;;;;;;;4890303;29;20041;-78
2023/07/24 11:56:56;;;;;;;13.85;10.02;;;;;;;;;;4887991;29;20049;-81
2023/07/24 11:59:42;;;;;;;19.88;10.15;;;;;;;;;;4881852;29;20053;-79
2023/07/24 12:02:28;;;;;;;14.52;9.60;;;;;;;;;;4888122;29;20057;-80
2023/07/24 12:05:14;;;;;;;20.05;10.15;;;;;;;;;;4881773;29;20041;-80
2023/07/24 12:07:59;;;;;;;17.20;10.73;;;;;;;;;;4888410;29;20491;-80
2023/07/24 12:10:44;;;;;;;17.20;9.73;;;;;;;;;;4886745;29;20049;-78
2023/07/24 12:13:32;;;;;;;15.25;9.82;;;;;;;;;;4881700;29;20045;-87
2023/07/24 12:16:17;;;;;;;18.50;10.77;;;;;;;;;;4900588;29;20045;-81
2023/07/24 12:19:02;;;;;;;14.98;9.77;;;;;;;;;;4882141;29;20056;-79
2023/07/24 12:21:48;;;;;;;17.67;9.80;;;;;;;;;;4890131;29;20053;-79
2023/07/24 12:24:33;;;;;;;17.40;10.18;;;;;;;;;;4881968;29;20048;-80
2023/07/24 12:27:19;;;;;;;15.38;9.70;;;;;;;;;;4871061;29;20050;-79
2023/07/24 12:30:06;;;;;;;15.77;9.73;;;;;;;;;;4863151;29;20050;-81
2023/07/24 12:32:51;;;;;;;15.27;9.63;;;;;;;;;;4862561;29;20046;-81
2023/07/24 12:35:40;;;;;;;14.60;9.50;;;;;;;;;;4869301;29;20053;-80
2023/07/24 12:38:26;;;;;;;13.60;9.27;;;;;;;;;;4865391;29;20042;-80
2023/07/24 12:41:11;;;;;;;18.13;10.65;;;;;;;;;;4855051;29;20058;-80
2023/07/24 12:43:56;;;;;;;18.83;9.95;;;;;;;;;;4868674;29;20408;-79
2023/07/24 12:46:42;;;;;;;15.68;9.43;;;;;;;;;;4868452;29;20045;-80
2023/07/24 12:49:28;;;;;;;18.75;10.07;;;;;;;;;;4862652;29;20049;-82
2023/07/24 12:52:13;;;;;;;15.15;10.27;;;;;;;;;;4869146;29;20158;-80
2023/07/24 12:54:59;;;;;;;14.23;10.23;;;;;;;;;;4863009;29;20037;-79
2023/07/24 12:57:44;;;;;;;16.73;10.13;;;;;;;;;;4868387;29;20046;-80
2023/07/24 13:00:31;;;;;;;21.90;9.95;;;;;;;;;;4862677;29;20049;-79
2023/07/24 13:03:17;;;;;;;15.05;9.50;;;;;;;;;;4870239;29;20420;-80
2023/07/24 13:06:02;;;;;;;16.23;9.15;;;;;;;;;;4870865;29;20053;-80
2023/07/24 13:08:50;;;;;;;16.20;10.02;;;;;;;;;;4864717;29;20046;-79
2023/07/24 13:11:35;;;;;;;16.63;9.88;;;;;;;;;;4855658;29;20050;-78
2023/07/24 13:14:23;;;;;;;15.18;9.77;;;;;;;;;;4862624;29;20054;-80
2023/07/24 13:17:09;;;;;;;14.75;9.40;;;;;;;;;;4869173;29;20491;-79
2023/07/24 13:19:54;;;;;;;19.30;9.95;;;;;;;;;;4872786;29;20046;-80
2023/07/24 13:22:43;;;;;;;15.85;10.23;;;;;;;;;;4870737;29;20057;-81
2023/07/24 13:25:29;;;;;;;17.23;10.10;;;;;;;;;;4863414;29;20053;-80
2023/07/24 13:28:14;;;;;;;16.60;9.80;;;;;;;;;;4850955;29;20050;-79
2023/07/24 13:31:10;;;;;;;17.48;10.82;;;;;;;;;;4864236;29;20053;-80
2023/07/24 13:33:55;;;;;;;13.82;10.18;;;;;;;;;;4870703;29;20420;-79
2023/07/24 13:36:41;;;;;;;17.65;10.30;;;;;;;;;;4870870;29;20050;-80
2023/07/24 13:39:28;;;;;;;13.35;10.27;;;;;;;;;;4869367;29;20057;-80
2023/07/24 13:42:13;;;;;;;16.15;10.10;;;;;;;;;;4868967;29;20499;-79
2023/07/24 13:44:58;;;;;;;17.15;9.80;;;;;;;;;;4869399;29;20049;-78
2023/07/24 13:47:44;;;;;;;20.33;11.02;;;;;;;;;;4856360;29;20045;-79
2023/07/24 13:50:30;;;;;;;16.38;10.82;;;;;;;;;;4867358;29;20492;-79
2023/07/24 13:53:17;;;;;;;14.30;10.15;;;;;;;;;;4861099;29;20049;-79
2023/07/24 13:56:02;;;;;;;15.63;9.82;;;;;;;;;;4860708;29;20045;-79
2023/07/24 13:58:47;;;;;;;17.88;10.55;;;;;;;;;;4868378;29;20488;-79
2023/07/24 14:01:33;;;;;;;17.27;10.43;;;;;;;;;;4861931;29;20053;-78
2023/07/24 14:04:18;;;;;;;17.60;10.43;;;;;;;;;;4862556;29;20053;-79
2023/07/24 14:07:04;;;;;;;15.65;10.25;;;;;;;;;;4867974;29;20053;-79
2023/07/24 14:09:49;;;;;;;16.75;9.65;;;;;;;;;;4867948;29;20049;-80
2023/07/24 14:12:34;;;;;;;19.25;9.95;;;;;;;;;;4868303;29;20042;-80
2023/07/24 14:15:20;;;;;;;17.23;10.45;;;;;;;;;;4867669;29;20053;-80
2023/07/24 14:18:05;;;;;;;16.33;9.82;;;;;;;;;;4862028;29;20050;-79
2023/07/24 14:20:54;;;;;;;20.23;10.68;;;;;;;;;;4868867;29;20050;-80
2023/07/24 14:23:39;;;;;;;17.60;10.60;;;;;;;;;;4866697;29;20049;-80
2023/07/24 14:26:25;;;;;;;15.75;10.43;;;;;;;;;;4860885;29;20046;-81
2023/07/24 14:29:11;;;;;;;16.17;10.50;;;;;;;;;;4867129;29;20041;-81
2023/07/24 14:31:56;;;;;;;14.55;10.48;;;;;;;;;;4862445;29;20046;-80
2023/07/24 14:34:43;;;;;;;13.75;10.50;;;;;;;;;;4868196;29;20045;-82
2023/07/24 14:37:29;;;;;;;16.27;10.73;;;;;;;;;;4861936;29;20057;-80
2023/07/24 14:40:14;;;;;;;13.65;9.85;;;;;;;;;;4865648;29;20046;-79
2023/07/24 14:43:00;;;;;;;13.38;9.65;;;;;;;;;;4871116;29;20053;-80
2023/07/24 14:45:47;;;;;;;13.80;10.57;;;;;;;;;;4854821;29;20392;-81
2023/07/24 14:48:33;;;;;;;13.70;10.00;;;;;;;;;;4866242;29;20065;-80
2023/07/24 14:51:19;;;;;;;16.42;10.57;;;;;;;;;;4868265;29;20053;-78
2023/07/24 14:54:04;;;;;;;14.55;10.20;;;;;;;;;;4862096;29;20062;-80
2023/07/24 14:56:50;;;;;;;17.35;9.95;;;;;;;;;;4861269;29;20057;-80
2023/07/24 14:59:35;;;;;;;17.35;10.50;;;;;;;;;;4861799;29;20045;-79
2023/07/24 15:02:21;;;;;;;13.93;9.80;;;;;;;;;;4870867;29;20045;-79
2023/07/24 15:05:07;;;;;;;16.15;11.38;;;;;;;;;;4874641;29;20053;-79
2023/07/24 15:07:52;;;;;;;14.98;9.75;;;;;;;;;;4864460;29;20061;-81
2023/07/24 15:10:39;;;;;;;17.85;10.45;;;;;;;;;;4870601;29;20050;-82
2023/07/24 15:13:24;;;;;;;15.23;10.27;;;;;;;;;;4865685;29;20046;-81
2023/07/24 15:16:10;;;;;;;15.82;11.02;;;;;;;;;;4864033;29;20050;-83
2023/07/24 15:18:55;;;;;;;15.65;11.18;;;;;;;;;;4864321;29;20053;-81
2023/07/24 15:21:41;;;;;;;15.32;10.27;;;;;;;;;;4867442;29;20046;-79
2023/07/24 15:24:26;;;;;;;14.40;9.60;;;;;;;;;;4869774;29;20045;-79
2023/07/24 15:27:13;;;;;;;19.10;10.90;;;;;;;;;;4863598;29;20251;-79
2023/07/24 15:29:59;;;;;;;18.13;10.65;;;;;;;;;;4869725;29;20057;-81
2023/07/24 15:32:46;;;;;;;16.35;10.88;;;;;;;;;;4855892;29;20049;-79
2023/07/24 15:35:31;;;;;;;17.67;11.07;;;;;;;;;;4863783;29;20045;-78
2023/07/24 15:38:16;;;;;;;15.30;10.60;;;;;;;;;;4870550;29;20050;-79
2023/07/24 15:41:02;;;;;;;16.70;10.75;;;;;;;;;;4868517;29;20053;-78
2023/07/24 15:43:48;;;;;;;16.63;10.38;;;;;;;;;;4862125;29;20049;-78
2023/07/24 15:46:34;;;;;;;17.13;10.70;;;;;;;;;;4871987;29;20053;-77
2023/07/24 15:49:19;;;;;;;16.52;10.45;;;;;;;;;;4870563;29;20049;-80
2023/07/24 15:52:06;;;;;;;17.15;10.50;;;;;;;;;;4870030;29;20045;-80
2023/07/24 15:54:51;;;;;;;13.60;9.57;;;;;;;;;;4874919;29;20053;-80
2023/07/24 15:57:37;;;;;;;17.27;10.43;;;;;;;;;;4864289;29;20488;-79
2023/07/24 16:00:22;;;;;;;17.80;11.00;;;;;;;;;;4870513;29;20045;-79
2023/07/24 16:03:07;;;;;;;16.50;11.05;;;;;;;;;;4870311;29;20057;-79
2023/07/24 16:05:54;;;;;;;15.57;10.68;;;;;;;;;;4870375;29;20049;-78
2023/07/24 16:08:42;;;;;;;15.90;10.88;;;;;;;;;;4866069;29;20045;-79
2023/07/24 16:11:28;;;;;;;17.88;10.98;;;;;;;;;;4868404;29;20046;-80
2023/07/24 16:14:14;;;;;;;23.02;16.77;;;;;;;;;;4862447;29;20049;-79
2023/07/24 16:17:00;;;;;;;24.30;16.25;;;;;;;;;;4855671;29;20046;-81